Time;durP1;ratioP1;P1;durP2;ratioP2;P2;SDS_P1;SDS_P2;PMS_P1;PMS_P2;Temp;Humidity;BMP_temperature;BMP_pressure;BME280_temperature;BME280_humidity;BME280_pressure;Samples;Min_cycle;Max_cycle;Signal;HPM_P1;HPM_P2
2021/09/27 00:00:53;;;;;;;4.32;2.45;;;15.40;52.10;;;;;;5093381;28;20229;-58
2021/09/27 00:03:23;;;;;;;5.03;3.33;;;15.50;52.20;;;;;;5093170;28;20202;-63
2021/09/27 00:05:54;;;;;;;3.67;2.80;;;15.50;52.10;;;;;;5093811;28;20228;-60
2021/09/27 00:08:24;;;;;;;4.78;3.00;;;15.50;52.10;;;;;;5093295;28;20214;-62
2021/09/27 00:10:56;;;;;;;3.65;2.95;;;15.50;52.00;;;;;;5074985;28;20234;-62
2021/09/27 00:13:26;;;;;;;4.18;2.95;;;15.60;52.00;;;;;;5074587;28;20285;-61
2021/09/27 00:15:59;;;;;;;4.47;3.20;;;15.60;51.90;;;;;;5074066;28;20229;-58
2021/09/27 00:18:30;;;;;;;4.28;2.38;;;15.60;51.80;;;;;;5072986;28;20229;-64
2021/09/27 00:21:01;;;;;;;3.97;2.97;;;15.60;51.80;;;;;;5073468;28;20237;-57
2021/09/27 00:23:32;;;;;;;4.13;2.63;;;15.60;51.80;;;;;;5087056;28;20198;-59
2021/09/27 00:26:03;;;;;;;3.88;3.05;;;15.70;51.80;;;;;;5092617;28;20315;-60
2021/09/27 00:28:33;;;;;;;3.88;2.58;;;15.70;51.80;;;;;;5079606;28;20262;-62
2021/09/27 00:31:05;;;;;;;3.17;2.20;;;15.70;51.80;;;;;;5072525;28;20238;-64
2021/09/27 00:33:36;;;;;;;3.80;2.55;;;15.70;51.80;;;;;;5086854;28;20268;-60
2021/09/27 00:36:07;;;;;;;4.05;2.67;;;15.80;51.90;;;;;;5092254;28;20233;-58
2021/09/27 00:38:37;;;;;;;3.25;2.60;;;15.80;51.90;;;;;;5093062;28;20246;-58
2021/09/27 00:41:09;;;;;;;3.45;2.67;;;15.80;51.90;;;;;;5093125;28;20226;-53
2021/09/27 00:43:40;;;;;;;3.15;2.33;;;15.90;52.00;;;;;;5092382;28;20229;-56
2021/09/27 00:46:13;;;;;;;3.88;2.70;;;15.90;52.10;;;;;;5087850;28;20230;-60
2021/09/27 00:48:43;;;;;;;4.22;2.50;;;15.90;52.20;;;;;;5065190;28;20669;-62
2021/09/27 00:51:15;;;;;;;3.63;2.20;;;15.90;52.10;;;;;;5073287;28;20231;-62
2021/09/27 00:53:46;;;;;;;3.40;2.45;;;15.90;52.00;;;;;;5083875;28;20314;-59
2021/09/27 00:56:21;;;;;;;3.45;2.55;;;16.00;52.00;;;;;;5093513;28;20238;-55
2021/09/27 00:58:51;;;;;;;4.32;2.72;;;16.00;52.00;;;;;;5092279;28;20245;-62
2021/09/27 01:01:24;;;;;;;3.72;2.30;;;16.00;52.00;;;;;;5092703;28;20228;-62
2021/09/27 01:03:54;;;;;;;4.30;2.67;;;16.00;51.90;;;;;;5059337;28;20210;-56
2021/09/27 01:06:49;;;;;;;3.28;2.00;;;16.10;51.90;;;;;;5052110;28;20426;-62
2021/09/27 01:09:26;;;;;;;3.13;2.00;;;16.20;51.90;;;;;;5050993;28;20656;-59
2021/09/27 01:12:20;;;;;;;2.88;2.25;;;16.20;51.90;;;;;;5051871;28;20237;-55
2021/09/27 01:15:01;;;;;;;3.60;2.20;;;16.20;51.90;;;;;;5086915;28;20234;-62
2021/09/27 01:17:40;;;;;;;3.95;2.20;;;16.20;51.90;;;;;;5093020;28;20636;-56
2021/09/27 01:20:31;;;;;;;2.92;2.13;;;16.20;51.80;;;;;;5092980;28;20474;-59
2021/09/27 01:23:29;;;;;;;3.00;2.15;;;16.30;51.90;;;;;;5091450;28;20198;-60
2021/09/27 01:26:43;;;;;;;3.63;2.10;;;16.30;51.70;;;;;;5086138;28;20198;-62
2021/09/27 01:29:41;;;;;;;2.83;2.10;;;16.30;51.70;;;;;;5002294;28;20397;-62
2021/09/27 01:32:29;;;;;;;3.25;2.30;;;16.40;51.70;;;;;;5054339;28;20320;-59
2021/09/27 01:35:05;;;;;;;3.30;2.33;;;16.40;51.60;;;;;;5092256;28;20233;-62
2021/09/27 01:37:38;;;;;;;4.50;2.25;;;16.40;51.50;;;;;;5091490;28;20280;-61
2021/09/27 01:40:13;;;;;;;3.42;2.20;;;16.40;51.40;;;;;;5091777;28;20697;-58
2021/09/27 01:42:46;;;;;;;2.25;1.52;;;16.50;51.40;;;;;;5091811;28;20225;-61
2021/09/27 01:45:19;;;;;;;3.78;2.03;;;16.50;51.40;;;;;;5091316;28;20235;-60
2021/09/27 01:47:53;;;;;;;3.13;2.00;;;16.50;51.20;;;;;;5092308;28;20308;-62
2021/09/27 01:50:25;;;;;;;3.75;2.03;;;16.50;51.20;;;;;;5083142;28;20294;-61
2021/09/27 01:52:56;;;;;;;2.70;1.70;;;16.60;51.20;;;;;;5073490;28;20317;-62
2021/09/27 01:55:31;;;;;;;3.67;1.92;;;16.60;51.10;;;;;;5092159;28;20241;-61
2021/09/27 01:58:03;;;;;;;2.40;1.80;;;16.60;51.10;;;;;;5091759;28;20304;-61
2021/09/27 02:00:37;;;;;;;2.45;1.65;;;16.60;51.00;;;;;;5092265;28;20284;-60
2021/09/27 02:03:13;;;;;;;2.38;1.60;;;16.60;50.80;;;;;;5081560;28;20279;-62
2021/09/27 02:05:45;;;;;;;2.47;1.65;;;16.60;50.70;;;;;;5072211;28;20715;-62
2021/09/27 02:08:17;;;;;;;2.38;1.73;;;16.70;50.70;;;;;;5071750;28;20658;-58
2021/09/27 02:10:49;;;;;;;2.38;1.70;;;16.70;50.70;;;;;;5071266;28;20234;-62
2021/09/27 02:13:21;;;;;;;1.90;1.58;;;16.70;50.70;;;;;;5072132;28;20652;-57
2021/09/27 02:15:56;;;;;;;2.70;1.67;;;16.80;50.70;;;;;;5072150;28;20578;-62
2021/09/27 02:18:30;;;;;;;1.92;1.38;;;16.80;50.70;;;;;;5071496;28;20297;-62
2021/09/27 02:21:02;;;;;;;2.10;1.60;;;16.80;50.60;;;;;;5070241;28;20230;-62
2021/09/27 02:23:35;;;;;;;2.45;1.20;;;16.80;50.60;;;;;;5071084;28;20238;-59
2021/09/27 02:26:05;;;;;;;1.42;1.33;;;16.80;50.60;;;;;;5071218;28;20667;-61
2021/09/27 02:28:35;;;;;;;3.40;1.73;;;16.90;50.60;;;;;;5071334;28;20624;-59
2021/09/27 02:31:08;;;;;;;1.65;1.33;;;16.90;50.50;;;;;;5071430;28;20241;-58
2021/09/27 02:33:43;;;;;;;2.10;1.40;;;16.90;50.40;;;;;;5076173;28;20670;-56
2021/09/27 02:36:14;;;;;;;1.30;1.20;;;16.90;50.20;;;;;;5071918;28;20222;-61
2021/09/27 02:38:49;;;;;;;2.00;1.42;;;17.00;50.20;;;;;;5067927;28;20473;-62
2021/09/27 02:41:23;;;;;;;1.95;1.20;;;17.00;50.40;;;;;;5083092;28;20291;-62
2021/09/27 02:43:53;;;;;;;2.67;1.60;;;17.00;50.60;;;;;;5068421;28;20245;-60
2021/09/27 02:46:24;;;;;;;2.67;1.25;;;17.00;50.60;;;;;;5070670;28;20630;-62
2021/09/27 02:48:58;;;;;;;2.00;1.50;;;17.10;50.60;;;;;;5075775;28;20210;-43
2021/09/27 02:51:29;;;;;;;2.10;1.30;;;17.10;50.50;;;;;;5090954;28;20204;-59
2021/09/27 02:53:59;;;;;;;2.97;1.50;;;17.10;50.50;;;;;;5083179;28;20229;-59
2021/09/27 02:56:43;;;;;;;3.47;1.50;;;17.10;50.50;;;;;;5076750;28;20230;-58
2021/09/27 02:59:18;;;;;;;2.63;1.30;;;17.10;50.40;;;;;;5078199;28;20754;-62
2021/09/27 03:01:51;;;;;;;2.20;1.42;;;17.10;50.30;;;;;;5090269;28;20229;-53
2021/09/27 03:04:28;;;;;;;3.00;1.50;;;17.20;50.30;;;;;;5063426;28;20555;-61
2021/09/27 03:07:09;;;;;;;2.15;1.65;;;17.20;50.20;;;;;;5049788;28;20231;-60
2021/09/27 03:09:44;;;;;;;1.60;1.23;;;17.20;50.10;;;;;;5074385;28;20260;-57
2021/09/27 03:12:37;;;;;;;2.25;1.38;;;17.20;49.80;;;;;;5089933;28;20709;-61
2021/09/27 03:15:40;;;;;;;2.08;1.40;;;17.30;49.80;;;;;;5090149;28;20236;-62
2021/09/27 03:18:17;;;;;;;2.08;1.20;;;17.20;49.70;;;;;;5089949;28;20213;-59
2021/09/27 03:20:58;;;;;;;2.03;1.42;;;17.30;49.70;;;;;;5090895;28;20194;-62
2021/09/27 03:23:32;;;;;;;2.28;1.38;;;17.30;49.70;;;;;;5093109;28;20236;-59
2021/09/27 03:26:07;;;;;;;2.13;1.20;;;17.30;49.60;;;;;;5095051;28;20228;-62
2021/09/27 03:28:40;;;;;;;3.08;1.40;;;17.40;49.60;;;;;;5093378;28;20240;-62
2021/09/27 03:31:15;;;;;;;1.52;1.15;;;17.40;49.60;;;;;;5094846;28;20273;-59
2021/09/27 03:33:52;;;;;;;2.38;1.20;;;17.40;49.70;;;;;;5077920;28;20316;-57
2021/09/27 03:36:44;;;;;;;1.80;1.00;;;17.40;49.80;;;;;;5072507;28;20230;-59
2021/09/27 03:39:17;;;;;;;2.05;1.33;;;17.50;49.70;;;;;;5077436;28;20249;-61
2021/09/27 03:41:49;;;;;;;2.15;1.17;;;17.50;49.70;;;;;;5093639;28;20237;-62
2021/09/27 03:44:21;;;;;;;1.90;0.90;;;17.50;49.70;;;;;;5094380;28;20732;-62
2021/09/27 03:46:55;;;;;;;3.30;1.40;;;17.60;49.50;;;;;;5094168;28;20225;-62
2021/09/27 03:49:28;;;;;;;3.67;1.40;;;17.60;49.50;;;;;;5085473;28;20302;-54
2021/09/27 03:52:05;;;;;;;4.10;1.80;;;17.60;49.40;;;;;;5075245;28;20253;-58
2021/09/27 03:54:39;;;;;;;2.05;1.65;;;17.60;49.40;;;;;;5074397;28;20370;-57
2021/09/27 03:57:12;;;;;;;2.15;1.75;;;17.60;49.30;;;;;;5073898;28;20681;-60
2021/09/27 03:59:44;;;;;;;2.05;1.60;;;17.70;49.30;;;;;;5086488;28;20301;-62
2021/09/27 04:02:17;;;;;;;2.65;1.50;;;17.70;50.50;;;;;;5079855;28;20367;-61
2021/09/27 04:04:53;;;;;;;2.60;1.85;;;17.80;51.50;;;;;;5073938;28;20504;-63
2021/09/27 04:07:29;;;;;;;3.15;1.92;;;17.90;51.90;;;;;;5073337;28;20199;-59
2021/09/27 04:10:08;;;;;;;2.30;1.70;;;17.90;52.00;;;;;;5085377;28;20478;-62
2021/09/27 04:12:43;;;;;;;3.08;1.70;;;18.10;52.00;;;;;;5072391;28;20646;-61
2021/09/27 04:15:20;;;;;;;2.22;1.60;;;18.10;51.70;;;;;;5072989;28;20244;-63
2021/09/27 04:18:00;;;;;;;2.30;1.60;;;18.20;51.60;;;;;;5067059;28;20713;-63
2021/09/27 04:20:32;;;;;;;2.03;1.63;;;18.20;51.50;;;;;;5077662;28;20259;-61
2021/09/27 04:23:10;;;;;;;2.40;1.75;;;18.30;51.20;;;;;;5072754;28;20653;-60
2021/09/27 04:25:43;;;;;;;1.55;1.38;;;18.30;51.00;;;;;;5071545;28;20234;-57
2021/09/27 04:28:51;;;;;;;1.83;1.60;;;18.30;50.70;;;;;;5073721;28;20302;-57
2021/09/27 04:31:26;;;;;;;2.92;1.70;;;18.30;50.50;;;;;;5046759;28;20202;-61
2021/09/27 04:34:25;;;;;;;3.35;1.80;;;18.40;50.30;;;;;;5071364;28;20225;-61
2021/09/27 04:36:56;;;;;;;2.80;1.52;;;18.40;50.20;;;;;;5070034;28;20203;-52
2021/09/27 04:39:31;;;;;;;2.08;1.42;;;18.40;50.00;;;;;;5076999;28;20689;-57
2021/09/27 04:42:26;;;;;;;1.75;1.33;;;18.40;49.70;;;;;;5087704;28;20201;-58
2021/09/27 04:45:07;;;;;;;1.98;1.48;;;18.50;49.70;;;;;;5093344;28;20677;-59
2021/09/27 04:47:44;;;;;;;2.85;1.35;;;18.50;49.40;;;;;;5093146;28;20226;-59
2021/09/27 04:50:24;;;;;;;1.42;1.27;;;18.50;49.40;;;;;;5093010;28;20226;-60
2021/09/27 04:52:56;;;;;;;2.45;1.40;;;18.50;49.40;;;;;;5075064;28;20658;-59
2021/09/27 04:55:49;;;;;;;2.17;1.27;;;18.50;49.30;;;;;;5069994;28;20242;-59
2021/09/27 04:58:38;;;;;;;2.10;1.50;;;18.50;49.20;;;;;;5073278;28;20214;-60
2021/09/27 05:01:28;;;;;;;1.70;1.25;;;18.50;49.10;;;;;;5091065;28;20226;-60
2021/09/27 05:04:05;;;;;;;2.30;1.58;;;18.60;49.10;;;;;;5073777;28;20252;-52
2021/09/27 05:07:06;;;;;;;2.35;1.40;;;18.50;48.80;;;;;;5072723;28;20243;-61
2021/09/27 05:09:41;;;;;;;2.53;1.27;;;18.50;48.70;;;;;;5082948;28;20245;-59
2021/09/27 05:12:39;;;;;;;1.75;1.20;;;18.50;48.70;;;;;;5092563;28;20639;-56
2021/09/27 05:15:29;;;;;;;2.75;1.30;;;18.50;48.70;;;;;;5087392;28;20231;-60
2021/09/27 05:18:24;;;;;;;1.58;1.20;;;18.50;48.60;;;;;;5072663;28;20276;-60
2021/09/27 05:21:03;;;;;;;2.30;1.15;;;18.50;48.50;;;;;;5050441;28;20196;-60
2021/09/27 05:23:35;;;;;;;2.65;1.30;;;18.50;48.40;;;;;;5052626;28;20678;-60
2021/09/27 05:26:27;;;;;;;1.75;1.30;;;18.50;48.40;;;;;;5051735;28;20230;-60
2021/09/27 05:29:04;;;;;;;1.50;1.20;;;18.50;48.30;;;;;;5057446;28;20246;-44
2021/09/27 05:31:42;;;;;;;2.38;1.20;;;18.50;48.30;;;;;;5052087;28;20279;-60
2021/09/27 05:34:17;;;;;;;2.00;1.45;;;18.50;48.30;;;;;;5071374;28;20311;-60
2021/09/27 05:37:12;;;;;;;2.95;1.20;;;18.40;48.30;;;;;;5072081;28;20478;-57
2021/09/27 05:40:05;;;;;;;1.85;1.20;;;18.50;48.30;;;;;;5083948;28;20249;-60
2021/09/27 05:42:44;;;;;;;3.72;1.10;;;18.40;48.20;;;;;;5083238;28;20199;-58
2021/09/27 05:45:20;;;;;;;2.28;1.40;;;18.40;48.30;;;;;;5070232;28;20233;-53
2021/09/27 05:47:54;;;;;;;1.67;1.20;;;18.40;48.40;;;;;;5070917;28;20305;-59
2021/09/27 05:50:27;;;;;;;2.20;1.23;;;18.40;48.30;;;;;;5090076;28;20228;-58
2021/09/27 05:53:02;;;;;;;1.77;1.20;;;18.30;48.30;;;;;;5091471;28;20281;-59
2021/09/27 05:55:35;;;;;;;2.55;1.45;;;18.40;48.40;;;;;;5089145;28;20702;-59
2021/09/27 05:58:10;;;;;;;3.08;1.48;;;18.30;48.30;;;;;;5073257;28;20306;-59
2021/09/27 06:00:46;;;;;;;1.77;1.55;;;18.30;48.30;;;;;;5067549;28;20465;-60
2021/09/27 06:03:33;;;;;;;2.53;1.70;;;18.30;48.30;;;;;;5080388;28;20285;-56
2021/09/27 06:06:10;;;;;;;2.70;2.30;;;18.20;48.30;;;;;;5072415;28;20580;-60
2021/09/27 06:08:43;;;;;;;3.08;2.30;;;18.20;48.30;;;;;;5071352;28;20257;-59
2021/09/27 06:11:16;;;;;;;3.90;2.40;;;18.20;49.00;;;;;;5071487;28;20191;-59
2021/09/27 06:13:47;;;;;;;3.03;2.40;;;18.10;48.30;;;;;;5071583;28;20238;-55
2021/09/27 06:16:26;;;;;;;4.10;2.40;;;18.10;48.40;;;;;;5072337;28;20281;-56
2021/09/27 06:19:06;;;;;;;4.88;2.70;;;18.10;48.40;;;;;;5071993;28;20578;-54
2021/09/27 06:21:54;;;;;;;2.92;2.45;;;18.10;48.30;;;;;;5071719;28;20234;-57
2021/09/27 06:24:32;;;;;;;3.65;2.53;;;18.00;48.40;;;;;;5071655;28;20304;-59
2021/09/27 06:27:04;;;;;;;3.25;2.20;;;18.00;48.30;;;;;;5071353;28;20287;-52
2021/09/27 06:29:39;;;;;;;3.53;2.05;;;18.00;48.30;;;;;;5071360;28;20269;-54
2021/09/27 06:32:14;;;;;;;3.38;1.90;;;18.00;48.30;;;;;;5071531;28;20682;-59
2021/09/27 06:34:47;;;;;;;5.28;3.45;;;18.00;48.30;;;;;;5070483;28;20254;-64
2021/09/27 06:37:18;;;;;;;6.20;3.35;;;18.00;47.20;;;;;;5070618;28;20286;-67
2021/09/27 06:39:48;;;;;;;8.25;3.67;;;17.80;44.70;;;;;;5070796;28;20230;-68
2021/09/27 06:42:19;;;;;;;4.90;3.10;;;17.70;43.70;;;;;;5071500;28;20222;-48
2021/09/27 06:44:54;;;;;;;11.20;3.53;;;17.50;43.30;;;;;;5071498;28;20226;-60
2021/09/27 06:47:27;;;;;;;5.95;3.22;;;17.40;43.70;;;;;;5071484;28;20195;-60
2021/09/27 06:49:57;;;;;;;8.10;3.20;;;17.20;44.20;;;;;;5071421;28;20245;-59
2021/09/27 06:52:28;;;;;;;4.78;2.92;;;17.10;44.70;;;;;;5070141;28;20301;-50
2021/09/27 06:54:58;;;;;;;6.05;3.10;;;17.10;45.20;;;;;;5067132;28;20253;-56
2021/09/27 06:57:29;;;;;;;4.63;3.00;;;17.00;45.60;;;;;;5071173;28;20230;-60
2021/09/27 06:59:59;;;;;;;5.82;3.33;;;17.00;45.90;;;;;;5071319;28;20230;-55
2021/09/27 07:02:31;;;;;;;3.60;2.70;;;16.90;46.10;;;;;;5071405;28;20263;-60
2021/09/27 07:05:02;;;;;;;5.47;2.53;;;16.90;46.30;;;;;;5070643;28;20226;-57
2021/09/27 07:07:32;;;;;;;5.03;3.10;;;16.90;46.40;;;;;;5070554;28;20683;-57
2021/09/27 07:10:03;;;;;;;4.97;3.40;;;16.90;47.10;;;;;;5070632;28;20618;-60
2021/09/27 07:12:33;;;;;;;5.03;3.15;;;16.80;46.50;;;;;;5070575;28;20688;-60
2021/09/27 07:15:03;;;;;;;4.97;3.05;;;16.80;46.60;;;;;;5070293;28;20222;-49
2021/09/27 07:17:36;;;;;;;4.57;2.63;;;16.80;46.70;;;;;;5070301;28;20285;-51
2021/09/27 07:20:08;;;;;;;4.60;3.08;;;16.80;47.40;;;;;;5070711;28;20191;-60
2021/09/27 07:22:38;;;;;;;5.57;3.28;;;16.80;46.90;;;;;;5070380;28;20222;-60
2021/09/27 07:25:10;;;;;;;5.32;2.95;;;16.80;46.90;;;;;;5070638;28;20286;-58
2021/09/27 07:27:40;;;;;;;3.15;2.53;;;16.70;46.90;;;;;;5064910;28;20195;-57
2021/09/27 07:30:12;;;;;;;4.47;2.50;;;16.70;47.00;;;;;;5081171;28;20237;-60
2021/09/27 07:32:44;;;;;;;3.55;2.75;;;16.70;47.00;;;;;;5065802;28;20233;-59
2021/09/27 07:35:16;;;;;;;4.97;3.15;;;16.70;47.10;;;;;;5070143;28;20266;-57
2021/09/27 07:37:46;;;;;;;4.78;2.50;;;16.70;47.20;;;;;;5073140;28;20241;-58
2021/09/27 07:40:25;;;;;;;4.88;2.90;;;16.70;47.30;;;;;;5072008;28;20234;-59
2021/09/27 07:42:56;;;;;;;4.15;2.30;;;16.70;47.40;;;;;;5066444;28;20634;-60
2021/09/27 07:45:26;;;;;;;3.97;2.55;;;16.70;47.40;;;;;;5069604;28;20199;-60
2021/09/27 07:47:59;;;;;;;4.93;2.50;;;16.70;47.50;;;;;;5071631;28;20306;-60
2021/09/27 07:50:29;;;;;;;4.38;2.65;;;16.60;47.40;;;;;;5066307;28;20285;-59
2021/09/27 07:52:59;;;;;;;3.63;2.60;;;16.60;47.40;;;;;;5069638;28;20199;-60
2021/09/27 07:55:30;;;;;;;3.42;2.53;;;16.60;47.50;;;;;;5064622;28;20317;-60
2021/09/27 07:58:03;;;;;;;5.28;2.90;;;16.60;47.50;;;;;;5076388;28;20223;-58
2021/09/27 08:00:34;;;;;;;3.30;2.50;;;16.60;47.60;;;;;;5077993;28;20426;-60
2021/09/27 08:03:06;;;;;;;3.20;2.20;;;16.60;47.60;;;;;;5069109;28;20530;-57
2021/09/27 08:05:38;;;;;;;2.83;2.08;;;16.60;47.60;;;;;;5069043;28;20283;-60
2021/09/27 08:08:08;;;;;;;3.03;2.20;;;16.50;47.60;;;;;;5077914;28;20226;-60
2021/09/27 08:10:39;;;;;;;3.90;2.42;;;16.60;47.70;;;;;;5093370;28;20240;-57
2021/09/27 08:13:09;;;;;;;3.63;2.25;;;16.60;47.70;;;;;;5093541;28;20244;-49
2021/09/27 08:15:40;;;;;;;3.83;2.30;;;16.50;47.70;;;;;;5094263;28;20240;-60
2021/09/27 08:18:13;;;;;;;3.10;2.20;;;16.50;47.80;;;;;;5080577;28;20253;-60
2021/09/27 08:20:45;;;;;;;3.67;2.00;;;16.50;47.80;;;;;;5071739;28;20219;-59
2021/09/27 08:23:16;;;;;;;3.17;2.20;;;16.50;47.80;;;;;;5071956;28;20237;-59
2021/09/27 08:25:46;;;;;;;3.90;2.40;;;16.50;47.80;;;;;;5073858;28;20227;-60
2021/09/27 08:28:17;;;;;;;3.55;2.38;;;16.50;47.90;;;;;;5081162;28;20307;-57
2021/09/27 08:30:48;;;;;;;3.70;2.08;;;16.50;47.90;;;;;;5093871;28;20230;-61
2021/09/27 08:33:21;;;;;;;2.67;2.05;;;16.50;47.90;;;;;;5082013;28;20230;-60
2021/09/27 08:35:52;;;;;;;3.30;2.22;;;16.40;47.90;;;;;;5075445;28;20225;-60
2021/09/27 08:38:22;;;;;;;2.55;2.08;;;16.40;47.90;;;;;;5092201;28;20220;-59
2021/09/27 08:41:08;;;;;;;2.85;1.90;;;16.40;47.90;;;;;;5093324;28;20226;-58
2021/09/27 08:43:48;;;;;;;2.97;1.92;;;16.40;48.00;;;;;;5089613;28;20729;-58
2021/09/27 08:46:21;;;;;;;2.63;2.15;;;16.40;48.00;;;;;;5082116;28;20229;-59
2021/09/27 08:48:55;;;;;;;3.50;1.92;;;16.30;48.00;;;;;;5080253;28;20243;-59
2021/09/27 08:51:25;;;;;;;3.55;2.30;;;16.30;48.00;;;;;;5059796;28;20286;-60
2021/09/27 08:53:55;;;;;;;3.03;2.03;;;16.30;48.00;;;;;;5086724;28;20285;-59
2021/09/27 08:56:30;;;;;;;3.42;2.13;;;16.30;48.10;;;;;;5077965;28;20307;-59
2021/09/27 08:59:03;;;;;;;3.15;2.10;;;16.30;48.20;;;;;;5052689;28;20250;-50
2021/09/27 09:01:40;;;;;;;3.20;1.90;;;16.30;48.20;;;;;;5052660;28;20199;-60
2021/09/27 09:04:16;;;;;;;2.80;2.13;;;16.20;48.10;;;;;;5085922;28;20669;-60
2021/09/27 09:06:48;;;;;;;4.45;2.08;;;16.20;48.10;;;;;;5093317;28;20194;-59
2021/09/27 09:09:19;;;;;;;2.88;2.20;;;16.20;48.10;;;;;;5091591;28;20302;-60
2021/09/27 09:11:52;;;;;;;2.20;1.92;;;16.20;48.20;;;;;;5092908;28;20285;-60
2021/09/27 09:14:28;;;;;;;3.08;2.00;;;16.10;48.10;;;;;;5075828;28;20195;-60
2021/09/27 09:16:58;;;;;;;4.63;2.47;;;16.10;48.10;;;;;;5072238;28;20237;-58
2021/09/27 09:19:32;;;;;;;2.83;2.13;;;16.20;48.20;;;;;;5069680;28;20258;-60
2021/09/27 09:22:04;;;;;;;2.90;2.10;;;16.10;48.10;;;;;;5073346;28;20301;-60
2021/09/27 09:24:38;;;;;;;2.92;2.15;;;16.10;48.20;;;;;;5052039;28;20250;-59
2021/09/27 09:27:09;;;;;;;2.53;1.75;;;16.00;48.10;;;;;;5072037;28;20732;-60
2021/09/27 09:29:40;;;;;;;3.55;2.20;;;16.00;48.20;;;;;;5071928;28;20262;-59
2021/09/27 09:32:16;;;;;;;2.90;2.10;;;16.00;48.20;;;;;;5068140;28;20689;-51
2021/09/27 09:34:48;;;;;;;2.42;2.17;;;16.00;48.30;;;;;;5071659;28;20219;-59
2021/09/27 09:37:24;;;;;;;2.58;1.73;;;16.00;48.30;;;;;;5071591;28;20629;-53
2021/09/27 09:40:00;;;;;;;2.10;1.88;;;16.00;48.30;;;;;;5072030;28;20277;-59
2021/09/27 09:42:32;;;;;;;2.65;2.00;;;15.90;48.20;;;;;;5075330;28;20302;-58
2021/09/27 09:45:15;;;;;;;3.03;1.85;;;15.90;48.30;;;;;;5091939;28;20293;-58
2021/09/27 09:47:45;;;;;;;2.63;1.90;;;15.90;48.30;;;;;;5091367;28;20261;-59
2021/09/27 09:50:29;;;;;;;3.50;2.03;;;15.90;48.30;;;;;;5091959;28;20238;-59
2021/09/27 09:53:00;;;;;;;2.30;1.92;;;15.90;48.30;;;;;;5090872;28;20225;-59
2021/09/27 09:55:33;;;;;;;2.38;1.90;;;15.80;48.30;;;;;;5090935;28;20317;-53
2021/09/27 09:58:05;;;;;;;3.30;2.00;;;15.80;48.30;;;;;;5091952;28;20250;-60
2021/09/27 10:00:47;;;;;;;2.70;2.05;;;15.80;48.20;;;;;;5092203;28;20499;-56
2021/09/27 10:03:18;;;;;;;2.80;1.98;;;15.80;48.20;;;;;;5090213;28;20222;-56
2021/09/27 10:05:52;;;;;;;2.78;1.80;;;15.80;48.20;;;;;;5090354;28;20225;-57
2021/09/27 10:08:23;;;;;;;2.58;1.90;;;15.70;48.20;;;;;;5091660;28;20257;-57
2021/09/27 10:10:58;;;;;;;2.65;2.20;;;15.70;48.20;;;;;;5073892;28;20240;-56
2021/09/27 10:13:32;;;;;;;3.58;2.22;;;15.70;48.20;;;;;;5082803;28;20229;-55
2021/09/27 10:16:02;;;;;;;3.75;2.60;;;15.60;48.20;;;;;;5080931;28;20271;-56
2021/09/27 10:18:33;;;;;;;4.03;2.50;;;15.60;48.20;;;;;;5091448;28;20647;-58
2021/09/27 10:21:25;;;;;;;3.92;2.53;;;15.60;48.20;;;;;;5089372;28;20651;-58
2021/09/27 10:23:57;;;;;;;3.80;2.40;;;15.60;48.30;;;;;;5090593;28;20195;-59
2021/09/27 10:26:33;;;;;;;3.33;2.60;;;15.50;48.20;;;;;;5091163;28;20277;-58
2021/09/27 10:29:06;;;;;;;3.15;2.05;;;15.50;48.20;;;;;;5091740;28;20253;-58
2021/09/27 10:31:38;;;;;;;4.70;2.75;;;15.50;48.30;;;;;;5091307;28;20665;-58
2021/09/27 10:34:12;;;;;;;4.63;3.25;;;15.50;48.30;;;;;;5070576;28;20638;-59
2021/09/27 10:36:46;;;;;;;3.97;2.97;;;15.40;48.30;;;;;;5070172;28;20265;-58
2021/09/27 10:39:20;;;;;;;4.45;2.95;;;15.40;48.30;;;;;;5068602;28;20306;-55
2021/09/27 10:41:55;;;;;;;5.15;3.80;;;15.40;48.40;;;;;;5052293;28;20294;-55
2021/09/27 10:44:26;;;;;;;6.80;3.90;;;15.40;48.40;;;;;;5077473;28;20279;-58
2021/09/27 10:47:02;;;;;;;6.47;4.18;;;15.40;48.40;;;;;;5070974;28;20651;-58
2021/09/27 10:49:34;;;;;;;5.65;4.22;;;15.30;48.40;;;;;;5064717;28;20222;-58
2021/09/27 10:52:15;;;;;;;7.22;4.25;;;15.30;48.40;;;;;;5071316;28;20269;-58
2021/09/27 10:54:46;;;;;;;7.10;4.40;;;15.30;48.40;;;;;;5088660;28;20233;-58
2021/09/27 10:57:18;;;;;;;8.18;4.55;;;15.30;48.50;;;;;;5070148;28;20261;-56
2021/09/27 10:59:58;;;;;;;6.38;4.82;;;15.30;48.50;;;;;;5071692;28;20282;-57
2021/09/27 11:02:31;;;;;;;5.70;4.10;;;15.20;48.50;;;;;;5075176;28;20229;-56
2021/09/27 11:05:08;;;;;;;5.57;4.25;;;15.20;48.50;;;;;;5090730;28;20286;-55
2021/09/27 11:07:44;;;;;;;6.88;4.60;;;15.20;48.50;;;;;;5089665;28;20285;-55
2021/09/27 11:10:18;;;;;;;6.15;4.88;;;15.20;48.50;;;;;;5090241;28;20631;-56
2021/09/27 11:12:50;;;;;;;5.95;4.70;;;15.10;48.50;;;;;;5075005;28;20273;-56
2021/09/27 11:15:25;;;;;;;6.53;4.68;;;15.10;48.60;;;;;;5074942;28;20264;-58
2021/09/27 11:18:06;;;;;;;5.63;4.18;;;15.10;48.60;;;;;;5068607;28;20249;-57
2021/09/27 11:21:01;;;;;;;6.75;4.22;;;15.10;48.60;;;;;;5070713;28;20294;-57
2021/09/27 11:23:35;;;;;;;5.45;4.25;;;15.00;48.60;;;;;;5082101;28;20221;-58
2021/09/27 11:26:30;;;;;;;6.00;4.30;;;15.00;48.60;;;;;;5090622;28;20714;-58
2021/09/27 11:29:32;;;;;;;6.75;4.60;;;15.00;48.60;;;;;;5087958;28;20720;-56
2021/09/27 11:32:44;;;;;;;8.30;4.57;;;14.90;48.60;;;;;;5084966;28;20225;-58
2021/09/27 11:35:35;;;;;;;5.10;3.78;;;14.90;48.70;;;;;;5089244;28;20633;-58
2021/09/27 11:38:21;;;;;;;7.63;4.30;;;14.90;48.60;;;;;;5090557;28;20214;-52
2021/09/27 11:40:55;;;;;;;4.78;3.83;;;14.90;48.70;;;;;;5089433;28;20252;-56
2021/09/27 11:43:29;;;;;;;6.07;4.13;;;14.90;48.70;;;;;;5090907;28;20230;-58
2021/09/27 11:46:16;;;;;;;6.20;4.47;;;14.90;48.80;;;;;;5093560;28;20229;-52
2021/09/27 11:48:53;;;;;;;5.38;4.05;;;14.80;49.40;;;;;;5094685;28;20384;-56
2021/09/27 11:51:31;;;;;;;5.72;4.00;;;14.80;48.80;;;;;;5093616;28;20189;-59
2021/09/27 11:54:07;;;;;;;5.95;4.05;;;14.80;48.80;;;;;;5094906;28;20654;-59
2021/09/27 11:56:44;;;;;;;6.63;4.22;;;14.80;48.80;;;;;;5095207;28;20253;-57
2021/09/27 11:59:16;;;;;;;5.88;4.32;;;14.70;48.80;;;;;;5095269;28;20250;-59
2021/09/27 12:01:53;;;;;;;6.22;4.35;;;14.70;48.80;;;;;;5094906;28;20245;-59
2021/09/27 12:04:37;;;;;;;5.25;4.10;;;14.70;48.90;;;;;;5054263;28;20195;-57
2021/09/27 12:07:09;;;;;;;5.55;3.88;;;14.70;48.80;;;;;;5053975;28;20239;-49
2021/09/27 12:09:41;;;;;;;6.13;4.00;;;14.70;49.50;;;;;;5053959;28;20215;-47
2021/09/27 12:12:19;;;;;;;5.10;4.07;;;14.60;48.90;;;;;;5058751;28;20278;-57
2021/09/27 12:14:49;;;;;;;6.03;3.92;;;14.60;48.90;;;;;;5060950;28;20277;-60
2021/09/27 12:17:22;;;;;;;5.57;4.07;;;14.60;48.90;;;;;;5074007;28;20262;-53
2021/09/27 12:19:53;;;;;;;5.45;4.22;;;14.60;48.90;;;;;;5074273;28;20199;-59
2021/09/27 12:22:30;;;;;;;5.32;4.00;;;14.60;48.90;;;;;;5074494;28;20624;-59
2021/09/27 12:25:01;;;;;;;6.30;3.95;;;14.60;49.00;;;;;;5073820;28;20222;-60
2021/09/27 12:27:34;;;;;;;4.95;3.80;;;14.60;49.00;;;;;;5072671;28;20249;-59
2021/09/27 12:30:07;;;;;;;6.03;3.72;;;14.50;48.90;;;;;;5070422;28;20245;-57
2021/09/27 12:32:38;;;;;;;6.15;3.75;;;14.50;48.90;;;;;;5070589;28;20195;-59
2021/09/27 12:35:10;;;;;;;4.93;3.40;;;14.50;49.30;;;;;;5071906;28;20682;-60
2021/09/27 12:37:42;;;;;;;4.90;3.35;;;14.50;49.00;;;;;;5073420;28;20745;-59
2021/09/27 12:40:13;;;;;;;5.47;4.13;;;14.50;49.00;;;;;;5074091;28;20632;-57
2021/09/27 12:42:46;;;;;;;4.80;3.22;;;14.50;49.00;;;;;;5074191;28;20230;-59
2021/09/27 12:45:20;;;;;;;5.47;3.38;;;14.40;49.00;;;;;;5073756;28;20223;-59
2021/09/27 12:47:50;;;;;;;5.80;3.53;;;14.40;49.00;;;;;;5073427;28;20221;-55
2021/09/27 12:50:22;;;;;;;4.90;3.55;;;14.40;49.00;;;;;;5073190;28;20242;-59
2021/09/27 12:52:54;;;;;;;5.78;3.50;;;14.40;49.10;;;;;;5073580;28;20235;-56
2021/09/27 12:55:25;;;;;;;5.07;3.65;;;14.40;49.10;;;;;;5062763;28;20238;-59
2021/09/27 12:57:58;;;;;;;6.18;4.03;;;14.40;49.10;;;;;;5054980;28;20469;-60
2021/09/27 13:00:32;;;;;;;5.38;3.55;;;14.40;49.10;;;;;;5064193;28;20237;-59
2021/09/27 13:03:04;;;;;;;4.97;3.30;;;14.30;49.00;;;;;;5073047;28;20557;-59
2021/09/27 13:05:50;;;;;;;4.32;3.30;;;14.30;49.00;;;;;;5073319;28;20195;-59
2021/09/27 13:08:28;;;;;;;5.72;3.70;;;14.30;49.10;;;;;;5072849;28;20211;-57
2021/09/27 13:10:59;;;;;;;4.75;3.15;;;14.30;49.00;;;;;;5072693;28;20249;-53
2021/09/27 13:13:32;;;;;;;4.47;3.28;;;14.30;49.10;;;;;;5073180;28;20635;-59
2021/09/27 13:16:03;;;;;;;4.85;3.15;;;14.30;49.10;;;;;;5073169;28;20233;-60
2021/09/27 13:18:45;;;;;;;6.70;4.07;;;14.30;49.10;;;;;;5073044;28;20250;-58
2021/09/27 13:21:22;;;;;;;4.13;2.95;;;14.20;49.10;;;;;;5073387;28;20195;-60
2021/09/27 13:23:55;;;;;;;5.95;3.40;;;14.20;49.10;;;;;;5072957;28;20226;-55
2021/09/27 13:26:32;;;;;;;4.93;3.35;;;14.20;49.10;;;;;;5072903;28;20233;-59
2021/09/27 13:29:06;;;;;;;5.40;3.38;;;14.20;49.10;;;;;;5072926;28;20256;-55
2021/09/27 13:31:37;;;;;;;4.85;2.95;;;14.20;49.10;;;;;;5072954;28;20277;-60